< < Back
Terminal Aerodrome Forecast


Current Version              Previous Versions:   1  2  3  4  5  6  7  8  9  

Terminal Aerodrome Forecast

106
FTUS42 KTAE 272320
TAFABY
TAF
KABY 272320Z 2800/2824 09006KT P6SM SCT080
      TEMPO 2811/2815 4SM BR BKN020=

Latest METAR

183
SAUS70 KWBC 281200 RRI
MTRABY
METAR KABY 281153Z AUTO 06006KT 10SM FEW055 24/23 A3010 RMK AO2 SLP192
T02440228 10250 20239 53017


USA.gov is the U.S. government's official web portal to all federal, state and local government web resources and services.